sensor_id;sensor_type;location;lat;lon;timestamp;P1;durP1;ratioP1;P2;durP2;ratioP2
20065;SDS011;10193;48.884;9.182;2023-05-23T00:00:02;13.40;;;11.95;;
20065;SDS011;10193;48.884;9.182;2023-05-23T00:02:29;13.20;;;11.80;;
20065;SDS011;10193;48.884;9.182;2023-05-23T00:04:56;13.40;;;12.00;;
20065;SDS011;10193;48.884;9.182;2023-05-23T00:07:23;14.90;;;12.68;;
20065;SDS011;10193;48.884;9.182;2023-05-23T00:09:50;13.20;;;11.85;;
20065;SDS011;10193;48.884;9.182;2023-05-23T00:12:16;14.45;;;12.95;;
20065;SDS011;10193;48.884;9.182;2023-05-23T00:14:43;15.32;;;13.10;;
20065;SDS011;10193;48.884;9.182;2023-05-23T00:17:11;15.07;;;13.35;;
20065;SDS011;10193;48.884;9.182;2023-05-23T00:19:38;17.33;;;14.02;;
20065;SDS011;10193;48.884;9.182;2023-05-23T00:22:05;15.82;;;14.15;;
20065;SDS011;10193;48.884;9.182;2023-05-23T00:24:32;17.45;;;15.57;;
20065;SDS011;10193;48.884;9.182;2023-05-23T00:26:58;18.25;;;15.85;;
20065;SDS011;10193;48.884;9.182;2023-05-23T00:29:25;18.27;;;16.17;;
20065;SDS011;10193;48.884;9.182;2023-05-23T00:31:51;19.23;;;15.48;;
20065;SDS011;10193;48.884;9.182;2023-05-23T00:34:19;18.63;;;15.40;;
20065;SDS011;10193;48.884;9.182;2023-05-23T00:36:46;17.58;;;15.73;;
20065;SDS011;10193;48.884;9.182;2023-05-23T00:39:14;18.67;;;15.85;;
20065;SDS011;10193;48.884;9.182;2023-05-23T00:41:43;17.27;;;15.27;;
20065;SDS011;10193;48.884;9.182;2023-05-23T00:44:10;18.25;;;16.08;;
20065;SDS011;10193;48.884;9.182;2023-05-23T00:46:37;18.38;;;16.13;;
20065;SDS011;10193;48.884;9.182;2023-05-23T00:49:04;18.90;;;15.95;;
20065;SDS011;10193;48.884;9.182;2023-05-23T00:51:32;20.85;;;17.75;;
20065;SDS011;10193;48.884;9.182;2023-05-23T00:54:00;20.27;;;18.00;;
20065;SDS011;10193;48.884;9.182;2023-05-23T00:56:29;20.25;;;18.08;;
20065;SDS011;10193;48.884;9.182;2023-05-23T00:58:56;21.88;;;17.50;;
20065;SDS011;10193;48.884;9.182;2023-05-23T01:01:24;20.83;;;18.35;;
20065;SDS011;10193;48.884;9.182;2023-05-23T01:03:51;21.10;;;18.42;;
20065;SDS011;10193;48.884;9.182;2023-05-23T01:06:18;19.45;;;17.35;;
20065;SDS011;10193;48.884;9.182;2023-05-23T01:08:46;22.75;;;18.25;;
20065;SDS011;10193;48.884;9.182;2023-05-23T01:11:16;20.75;;;18.50;;
20065;SDS011;10193;48.884;9.182;2023-05-23T01:13:50;22.33;;;18.20;;
20065;SDS011;10193;48.884;9.182;2023-05-23T01:16:23;21.08;;;17.95;;
20065;SDS011;10193;48.884;9.182;2023-05-23T01:18:58;22.92;;;18.45;;
20065;SDS011;10193;48.884;9.182;2023-05-23T01:21:32;20.85;;;18.02;;
20065;SDS011;10193;48.884;9.182;2023-05-23T01:24:05;20.27;;;17.90;;
20065;SDS011;10193;48.884;9.182;2023-05-23T01:26:55;23.25;;;17.88;;
20065;SDS011;10193;48.884;9.182;2023-05-23T01:29:30;20.67;;;17.45;;
20065;SDS011;10193;48.884;9.182;2023-05-23T01:31:59;20.83;;;17.80;;
20065;SDS011;10193;48.884;9.182;2023-05-23T01:34:30;21.23;;;19.02;;
20065;SDS011;10193;48.884;9.182;2023-05-23T01:37:00;22.02;;;19.45;;
20065;SDS011;10193;48.884;9.182;2023-05-23T01:39:26;21.30;;;19.10;;
20065;SDS011;10193;48.884;9.182;2023-05-23T01:41:53;23.40;;;20.23;;
20065;SDS011;10193;48.884;9.182;2023-05-23T01:44:20;25.35;;;20.85;;
20065;SDS011;10193;48.884;9.182;2023-05-23T01:46:48;24.27;;;21.52;;
20065;SDS011;10193;48.884;9.182;2023-05-23T01:49:15;25.52;;;22.50;;
20065;SDS011;10193;48.884;9.182;2023-05-23T01:51:43;24.63;;;21.75;;
20065;SDS011;10193;48.884;9.182;2023-05-23T01:54:11;27.20;;;21.55;;
20065;SDS011;10193;48.884;9.182;2023-05-23T01:56:40;24.08;;;20.95;;
20065;SDS011;10193;48.884;9.182;2023-05-23T01:59:08;25.40;;;22.02;;
20065;SDS011;10193;48.884;9.182;2023-05-23T02:01:34;24.48;;;21.92;;
20065;SDS011;10193;48.884;9.182;2023-05-23T02:04:03;25.85;;;22.48;;
20065;SDS011;10193;48.884;9.182;2023-05-23T02:06:30;24.30;;;21.35;;
20065;SDS011;10193;48.884;9.182;2023-05-23T02:08:57;25.35;;;22.60;;
20065;SDS011;10193;48.884;9.182;2023-05-23T02:11:23;28.98;;;22.75;;
20065;SDS011;10193;48.884;9.182;2023-05-23T02:13:50;25.63;;;21.92;;
20065;SDS011;10193;48.884;9.182;2023-05-23T02:16:17;26.00;;;22.35;;
20065;SDS011;10193;48.884;9.182;2023-05-23T02:18:44;25.83;;;22.35;;
20065;SDS011;10193;48.884;9.182;2023-05-23T02:21:12;25.10;;;22.40;;
20065;SDS011;10193;48.884;9.182;2023-05-23T02:23:39;26.27;;;22.90;;
20065;SDS011;10193;48.884;9.182;2023-05-23T02:26:06;25.83;;;22.80;;
20065;SDS011;10193;48.884;9.182;2023-05-23T02:28:32;26.55;;;22.73;;
20065;SDS011;10193;48.884;9.182;2023-05-23T02:30:59;25.02;;;21.60;;
20065;SDS011;10193;48.884;9.182;2023-05-23T02:33:26;27.42;;;23.13;;
20065;SDS011;10193;48.884;9.182;2023-05-23T02:35:53;26.23;;;23.17;;
20065;SDS011;10193;48.884;9.182;2023-05-23T02:38:21;25.13;;;22.48;;
20065;SDS011;10193;48.884;9.182;2023-05-23T02:40:48;25.30;;;22.52;;
20065;SDS011;10193;48.884;9.182;2023-05-23T02:43:16;25.63;;;22.58;;
20065;SDS011;10193;48.884;9.182;2023-05-23T02:45:42;25.90;;;22.55;;
20065;SDS011;10193;48.884;9.182;2023-05-23T02:48:09;25.45;;;22.70;;
20065;SDS011;10193;48.884;9.182;2023-05-23T02:50:36;25.73;;;23.02;;
20065;SDS011;10193;48.884;9.182;2023-05-23T02:53:03;25.90;;;22.83;;
20065;SDS011;10193;48.884;9.182;2023-05-23T02:55:31;25.80;;;22.63;;
20065;SDS011;10193;48.884;9.182;2023-05-23T02:57:58;26.50;;;23.70;;
20065;SDS011;10193;48.884;9.182;2023-05-23T03:00:26;26.20;;;23.42;;
20065;SDS011;10193;48.884;9.182;2023-05-23T03:02:52;26.65;;;23.17;;
20065;SDS011;10193;48.884;9.182;2023-05-23T03:05:19;26.50;;;23.00;;
20065;SDS011;10193;48.884;9.182;2023-05-23T03:07:46;26.17;;;23.20;;
20065;SDS011;10193;48.884;9.182;2023-05-23T03:10:12;25.20;;;22.20;;
20065;SDS011;10193;48.884;9.182;2023-05-23T03:12:40;24.65;;;22.10;;
20065;SDS011;10193;48.884;9.182;2023-05-23T03:15:08;24.85;;;22.30;;
20065;SDS011;10193;48.884;9.182;2023-05-23T03:17:35;25.48;;;22.98;;
20065;SDS011;10193;48.884;9.182;2023-05-23T03:20:02;24.52;;;21.92;;
20065;SDS011;10193;48.884;9.182;2023-05-23T03:22:30;24.58;;;22.13;;
20065;SDS011;10193;48.884;9.182;2023-05-23T03:24:56;24.48;;;21.75;;
20065;SDS011;10193;48.884;9.182;2023-05-23T03:27:23;24.83;;;22.25;;
20065;SDS011;10193;48.884;9.182;2023-05-23T03:29:51;24.38;;;21.58;;
20065;SDS011;10193;48.884;9.182;2023-05-23T03:32:17;24.58;;;21.92;;
20065;SDS011;10193;48.884;9.182;2023-05-23T03:34:44;24.27;;;21.73;;
20065;SDS011;10193;48.884;9.182;2023-05-23T03:37:11;23.73;;;21.20;;
20065;SDS011;10193;48.884;9.182;2023-05-23T03:39:38;24.75;;;22.25;;
20065;SDS011;10193;48.884;9.182;2023-05-23T03:42:04;24.42;;;21.73;;
20065;SDS011;10193;48.884;9.182;2023-05-23T03:44:32;23.63;;;21.30;;
20065;SDS011;10193;48.884;9.182;2023-05-23T03:46:59;22.55;;;20.15;;
20065;SDS011;10193;48.884;9.182;2023-05-23T03:49:26;22.40;;;20.20;;
20065;SDS011;10193;48.884;9.182;2023-05-23T03:51:54;23.40;;;21.00;;
20065;SDS011;10193;48.884;9.182;2023-05-23T03:54:20;22.63;;;20.27;;
20065;SDS011;10193;48.884;9.182;2023-05-23T03:56:47;23.42;;;21.00;;
20065;SDS011;10193;48.884;9.182;2023-05-23T03:59:14;23.00;;;20.70;;
20065;SDS011;10193;48.884;9.182;2023-05-23T04:01:40;23.77;;;21.27;;
20065;SDS011;10193;48.884;9.182;2023-05-23T04:04:08;22.20;;;19.92;;
20065;SDS011;10193;48.884;9.182;2023-05-23T04:06:35;22.77;;;20.45;;
20065;SDS011;10193;48.884;9.182;2023-05-23T04:09:02;22.88;;;20.55;;
20065;SDS011;10193;48.884;9.182;2023-05-23T04:11:30;23.65;;;21.17;;
20065;SDS011;10193;48.884;9.182;2023-05-23T04:13:57;24.10;;;21.58;;
20065;SDS011;10193;48.884;9.182;2023-05-23T04:16:23;22.30;;;20.05;;
20065;SDS011;10193;48.884;9.182;2023-05-23T04:18:50;23.17;;;20.77;;
20065;SDS011;10193;48.884;9.182;2023-05-23T04:21:19;22.02;;;19.92;;
20065;SDS011;10193;48.884;9.182;2023-05-23T04:23:46;21.92;;;19.60;;
20065;SDS011;10193;48.884;9.182;2023-05-23T04:26:12;22.40;;;20.20;;
20065;SDS011;10193;48.884;9.182;2023-05-23T04:28:39;21.63;;;19.33;;
20065;SDS011;10193;48.884;9.182;2023-05-23T04:31:07;22.23;;;19.92;;
20065;SDS011;10193;48.884;9.182;2023-05-23T04:33:34;21.63;;;19.45;;
20065;SDS011;10193;48.884;9.182;2023-05-23T04:36:03;21.92;;;19.73;;
20065;SDS011;10193;48.884;9.182;2023-05-23T04:38:34;22.05;;;19.40;;
20065;SDS011;10193;48.884;9.182;2023-05-23T04:41:03;22.38;;;20.08;;
20065;SDS011;10193;48.884;9.182;2023-05-23T04:43:30;20.33;;;18.23;;
20065;SDS011;10193;48.884;9.182;2023-05-23T04:45:57;20.85;;;18.77;;
20065;SDS011;10193;48.884;9.182;2023-05-23T04:48:24;21.35;;;19.15;;
20065;SDS011;10193;48.884;9.182;2023-05-23T04:50:52;21.60;;;19.40;;
20065;SDS011;10193;48.884;9.182;2023-05-23T04:53:20;20.50;;;18.42;;
20065;SDS011;10193;48.884;9.182;2023-05-23T04:55:48;21.40;;;19.25;;
20065;SDS011;10193;48.884;9.182;2023-05-23T04:58:14;21.10;;;18.98;;
20065;SDS011;10193;48.884;9.182;2023-05-23T05:00:41;20.58;;;18.58;;
20065;SDS011;10193;48.884;9.182;2023-05-23T05:03:08;20.98;;;18.75;;
20065;SDS011;10193;48.884;9.182;2023-05-23T05:05:35;20.50;;;18.42;;
20065;SDS011;10193;48.884;9.182;2023-05-23T05:08:02;20.35;;;18.42;;
20065;SDS011;10193;48.884;9.182;2023-05-23T05:10:30;20.48;;;18.48;;
20065;SDS011;10193;48.884;9.182;2023-05-23T05:12:57;19.80;;;17.85;;
20065;SDS011;10193;48.884;9.182;2023-05-23T05:15:24;19.92;;;18.02;;
20065;SDS011;10193;48.884;9.182;2023-05-23T05:17:51;20.35;;;18.45;;
20065;SDS011;10193;48.884;9.182;2023-05-23T05:20:18;18.95;;;17.15;;
20065;SDS011;10193;48.884;9.182;2023-05-23T05:22:45;20.52;;;18.40;;
20065;SDS011;10193;48.884;9.182;2023-05-23T05:25:12;19.85;;;17.95;;
20065;SDS011;10193;48.884;9.182;2023-05-23T05:27:39;19.92;;;18.02;;
20065;SDS011;10193;48.884;9.182;2023-05-23T05:30:08;19.17;;;17.30;;
20065;SDS011;10193;48.884;9.182;2023-05-23T05:32:35;19.80;;;17.98;;
20065;SDS011;10193;48.884;9.182;2023-05-23T05:35:02;19.52;;;17.73;;
20065;SDS011;10193;48.884;9.182;2023-05-23T05:37:31;19.85;;;17.98;;
20065;SDS011;10193;48.884;9.182;2023-05-23T05:39:58;19.55;;;17.63;;
20065;SDS011;10193;48.884;9.182;2023-05-23T05:42:30;19.42;;;17.60;;
20065;SDS011;10193;48.884;9.182;2023-05-23T05:44:56;19.50;;;17.60;;
20065;SDS011;10193;48.884;9.182;2023-05-23T05:47:25;20.65;;;18.65;;
20065;SDS011;10193;48.884;9.182;2023-05-23T05:49:51;19.55;;;17.60;;
20065;SDS011;10193;48.884;9.182;2023-05-23T05:52:18;18.75;;;16.95;;
20065;SDS011;10193;48.884;9.182;2023-05-23T05:54:45;19.77;;;17.88;;
20065;SDS011;10193;48.884;9.182;2023-05-23T05:57:11;18.55;;;16.85;;
20065;SDS011;10193;48.884;9.182;2023-05-23T05:59:38;19.52;;;17.58;;
20065;SDS011;10193;48.884;9.182;2023-05-23T06:02:05;19.27;;;17.48;;
20065;SDS011;10193;48.884;9.182;2023-05-23T06:04:33;18.95;;;17.15;;
20065;SDS011;10193;48.884;9.182;2023-05-23T06:07:00;20.05;;;18.15;;
20065;SDS011;10193;48.884;9.182;2023-05-23T06:09:26;19.25;;;17.45;;
20065;SDS011;10193;48.884;9.182;2023-05-23T06:11:53;18.10;;;16.48;;
20065;SDS011;10193;48.884;9.182;2023-05-23T06:14:20;18.90;;;17.13;;
20065;SDS011;10193;48.884;9.182;2023-05-23T06:16:46;19.08;;;17.27;;
20065;SDS011;10193;48.884;9.182;2023-05-23T06:19:13;18.27;;;16.58;;
20065;SDS011;10193;48.884;9.182;2023-05-23T06:21:41;19.23;;;17.52;;
20065;SDS011;10193;48.884;9.182;2023-05-23T06:24:08;19.55;;;17.75;;
20065;SDS011;10193;48.884;9.182;2023-05-23T06:26:34;19.30;;;17.40;;
20065;SDS011;10193;48.884;9.182;2023-05-23T06:29:02;18.40;;;16.65;;
20065;SDS011;10193;48.884;9.182;2023-05-23T06:31:29;19.00;;;17.25;;
20065;SDS011;10193;48.884;9.182;2023-05-23T06:33:56;18.15;;;16.45;;
20065;SDS011;10193;48.884;9.182;2023-05-23T06:36:22;18.65;;;16.95;;
20065;SDS011;10193;48.884;9.182;2023-05-23T06:38:50;19.13;;;17.35;;
20065;SDS011;10193;48.884;9.182;2023-05-23T06:41:17;19.00;;;17.20;;
20065;SDS011;10193;48.884;9.182;2023-05-23T06:43:44;18.63;;;16.92;;
20065;SDS011;10193;48.884;9.182;2023-05-23T06:46:10;18.92;;;17.17;;
20065;SDS011;10193;48.884;9.182;2023-05-23T06:48:37;19.77;;;17.98;;
20065;SDS011;10193;48.884;9.182;2023-05-23T06:51:04;20.20;;;18.30;;
20065;SDS011;10193;48.884;9.182;2023-05-23T06:53:31;19.25;;;17.45;;
20065;SDS011;10193;48.884;9.182;2023-05-23T06:55:59;19.50;;;17.65;;
20065;SDS011;10193;48.884;9.182;2023-05-23T06:58:25;20.23;;;18.35;;
20065;SDS011;10193;48.884;9.182;2023-05-23T07:00:52;19.13;;;17.42;;
20065;SDS011;10193;48.884;9.182;2023-05-23T07:03:18;18.48;;;16.77;;
20065;SDS011;10193;48.884;9.182;2023-05-23T07:05:45;17.40;;;15.80;;
20065;SDS011;10193;48.884;9.182;2023-05-23T07:08:12;17.15;;;15.50;;
20065;SDS011;10193;48.884;9.182;2023-05-23T07:10:38;15.98;;;14.57;;
20065;SDS011;10193;48.884;9.182;2023-05-23T07:13:07;16.20;;;14.80;;
20065;SDS011;10193;48.884;9.182;2023-05-23T07:15:34;15.15;;;13.80;;
20065;SDS011;10193;48.884;9.182;2023-05-23T07:18:00;15.25;;;13.70;;
20065;SDS011;10193;48.884;9.182;2023-05-23T07:20:28;14.80;;;13.50;;
20065;SDS011;10193;48.884;9.182;2023-05-23T07:22:54;14.52;;;13.23;;
20065;SDS011;10193;48.884;9.182;2023-05-23T07:25:21;14.73;;;13.35;;
20065;SDS011;10193;48.884;9.182;2023-05-23T07:27:48;12.73;;;11.65;;
20065;SDS011;10193;48.884;9.182;2023-05-23T07:30:18;13.77;;;12.57;;
20065;SDS011;10193;48.884;9.182;2023-05-23T07:32:45;13.55;;;12.35;;
20065;SDS011;10193;48.884;9.182;2023-05-23T07:35:12;12.70;;;11.60;;
20065;SDS011;10193;48.884;9.182;2023-05-23T07:37:39;13.95;;;12.55;;
20065;SDS011;10193;48.884;9.182;2023-05-23T07:40:06;13.93;;;12.70;;
20065;SDS011;10193;48.884;9.182;2023-05-23T07:42:34;12.68;;;11.57;;
20065;SDS011;10193;48.884;9.182;2023-05-23T07:45:01;12.88;;;11.77;;
20065;SDS011;10193;48.884;9.182;2023-05-23T07:47:29;13.93;;;12.73;;
20065;SDS011;10193;48.884;9.182;2023-05-23T07:49:56;13.25;;;12.15;;
20065;SDS011;10193;48.884;9.182;2023-05-23T07:52:23;13.23;;;12.00;;
20065;SDS011;10193;48.884;9.182;2023-05-23T07:54:49;12.63;;;11.43;;
20065;SDS011;10193;48.884;9.182;2023-05-23T07:57:16;12.68;;;11.57;;
20065;SDS011;10193;48.884;9.182;2023-05-23T07:59:42;14.00;;;12.80;;
20065;SDS011;10193;48.884;9.182;2023-05-23T08:02:09;13.13;;;12.02;;
20065;SDS011;10193;48.884;9.182;2023-05-23T08:04:37;13.20;;;12.02;;
20065;SDS011;10193;48.884;9.182;2023-05-23T08:07:05;13.25;;;12.05;;
20065;SDS011;10193;48.884;9.182;2023-05-23T08:09:32;11.95;;;10.93;;
20065;SDS011;10193;48.884;9.182;2023-05-23T08:11:59;12.15;;;11.15;;
20065;SDS011;10193;48.884;9.182;2023-05-23T08:14:26;12.10;;;11.05;;
20065;SDS011;10193;48.884;9.182;2023-05-23T08:16:52;11.93;;;10.75;;
20065;SDS011;10193;48.884;9.182;2023-05-23T08:19:19;12.32;;;11.23;;
20065;SDS011;10193;48.884;9.182;2023-05-23T08:21:47;12.43;;;11.32;;
20065;SDS011;10193;48.884;9.182;2023-05-23T08:24:14;12.57;;;11.35;;
20065;SDS011;10193;48.884;9.182;2023-05-23T08:26:41;11.68;;;10.65;;
20065;SDS011;10193;48.884;9.182;2023-05-23T08:29:07;11.38;;;10.27;;
20065;SDS011;10193;48.884;9.182;2023-05-23T08:31:34;10.93;;;10.02;;
20065;SDS011;10193;48.884;9.182;2023-05-23T08:34:01;11.35;;;10.25;;
20065;SDS011;10193;48.884;9.182;2023-05-23T08:36:28;11.23;;;10.25;;
20065;SDS011;10193;48.884;9.182;2023-05-23T08:38:57;10.75;;;9.85;;
20065;SDS011;10193;48.884;9.182;2023-05-23T08:41:23;10.70;;;9.80;;
20065;SDS011;10193;48.884;9.182;2023-05-23T08:43:51;10.43;;;9.52;;
20065;SDS011;10193;48.884;9.182;2023-05-23T08:46:18;10.65;;;9.73;;
20065;SDS011;10193;48.884;9.182;2023-05-23T08:48:46;10.32;;;9.40;;
20065;SDS011;10193;48.884;9.182;2023-05-23T08:51:18;10.45;;;9.55;;
20065;SDS011;10193;48.884;9.182;2023-05-23T08:53:47;10.23;;;9.43;;
20065;SDS011;10193;48.884;9.182;2023-05-23T08:56:16;10.95;;;10.05;;
20065;SDS011;10193;48.884;9.182;2023-05-23T08:58:43;11.00;;;9.88;;
20065;SDS011;10193;48.884;9.182;2023-05-23T09:01:11;10.63;;;9.55;;
20065;SDS011;10193;48.884;9.182;2023-05-23T09:03:38;10.18;;;9.30;;
20065;SDS011;10193;48.884;9.182;2023-05-23T09:06:06;10.25;;;9.35;;
20065;SDS011;10193;48.884;9.182;2023-05-23T09:08:34;10.90;;;9.90;;
20065;SDS011;10193;48.884;9.182;2023-05-23T09:11:01;10.55;;;9.52;;
20065;SDS011;10193;48.884;9.182;2023-05-23T09:13:30;10.27;;;9.45;;
20065;SDS011;10193;48.884;9.182;2023-05-23T09:16:00;10.05;;;9.25;;
20065;SDS011;10193;48.884;9.182;2023-05-23T09:18:31;9.48;;;8.68;;
20065;SDS011;10193;48.884;9.182;2023-05-23T09:21:00;9.15;;;8.35;;
20065;SDS011;10193;48.884;9.182;2023-05-23T09:23:28;9.98;;;9.18;;
20065;SDS011;10193;48.884;9.182;2023-05-23T09:25:56;9.88;;;8.98;;
20065;SDS011;10193;48.884;9.182;2023-05-23T09:28:28;8.98;;;8.20;;
20065;SDS011;10193;48.884;9.182;2023-05-23T09:30:56;9.50;;;8.70;;
20065;SDS011;10193;48.884;9.182;2023-05-23T09:33:27;9.15;;;8.35;;
20065;SDS011;10193;48.884;9.182;2023-05-23T09:35:58;8.80;;;8.00;;
20065;SDS011;10193;48.884;9.182;2023-05-23T09:38:25;8.52;;;7.82;;
20065;SDS011;10193;48.884;9.182;2023-05-23T09:40:53;9.60;;;8.70;;
20065;SDS011;10193;48.884;9.182;2023-05-23T09:43:21;8.50;;;7.70;;
20065;SDS011;10193;48.884;9.182;2023-05-23T09:45:51;9.30;;;8.20;;
20065;SDS011;10193;48.884;9.182;2023-05-23T09:48:18;8.35;;;7.65;;
20065;SDS011;10193;48.884;9.182;2023-05-23T09:50:45;7.97;;;7.38;;
20065;SDS011;10193;48.884;9.182;2023-05-23T09:53:15;8.15;;;7.45;;
20065;SDS011;10193;48.884;9.182;2023-05-23T09:55:42;8.57;;;7.82;;
20065;SDS011;10193;48.884;9.182;2023-05-23T09:58:08;8.90;;;8.00;;
20065;SDS011;10193;48.884;9.182;2023-05-23T10:00:35;8.73;;;7.93;;
20065;SDS011;10193;48.884;9.182;2023-05-23T10:03:07;8.45;;;7.78;;
20065;SDS011;10193;48.884;9.182;2023-05-23T10:05:37;8.63;;;7.93;;
20065;SDS011;10193;48.884;9.182;2023-05-23T10:08:07;8.80;;;8.00;;
20065;SDS011;10193;48.884;9.182;2023-05-23T10:10:43;8.77;;;7.35;;
20065;SDS011;10193;48.884;9.182;2023-05-23T10:13:44;8.38;;;7.57;;
20065;SDS011;10193;48.884;9.182;2023-05-23T10:16:13;7.43;;;6.82;;
20065;SDS011;10193;48.884;9.182;2023-05-23T10:18:46;7.57;;;6.95;;
20065;SDS011;10193;48.884;9.182;2023-05-23T10:21:17;7.43;;;6.82;;
20065;SDS011;10193;48.884;9.182;2023-05-23T10:23:48;7.13;;;6.53;;
20065;SDS011;10193;48.884;9.182;2023-05-23T10:26:15;7.32;;;6.60;;
20065;SDS011;10193;48.884;9.182;2023-05-23T10:28:43;7.10;;;6.50;;
20065;SDS011;10193;48.884;9.182;2023-05-23T10:31:11;7.05;;;6.50;;
20065;SDS011;10193;48.884;9.182;2023-05-23T10:33:39;6.80;;;6.30;;
20065;SDS011;10193;48.884;9.182;2023-05-23T10:36:11;6.90;;;6.30;;
20065;SDS011;10193;48.884;9.182;2023-05-23T10:38:45;7.35;;;6.75;;
20065;SDS011;10193;48.884;9.182;2023-05-23T10:41:17;7.15;;;6.55;;
20065;SDS011;10193;48.884;9.182;2023-05-23T10:43:50;6.70;;;5.97;;
20065;SDS011;10193;48.884;9.182;2023-05-23T10:46:21;7.35;;;6.65;;
20065;SDS011;10193;48.884;9.182;2023-05-23T10:48:51;6.80;;;6.30;;
20065;SDS011;10193;48.884;9.182;2023-05-23T10:51:22;5.88;;;5.40;;
20065;SDS011;10193;48.884;9.182;2023-05-23T10:53:52;8.98;;;5.68;;
20065;SDS011;10193;48.884;9.182;2023-05-23T10:56:19;6.30;;;5.80;;
20065;SDS011;10193;48.884;9.182;2023-05-23T10:58:51;5.90;;;5.40;;
20065;SDS011;10193;48.884;9.182;2023-05-23T11:01:19;6.30;;;5.18;;
20065;SDS011;10193;48.884;9.182;2023-05-23T11:03:49;5.70;;;5.20;;
20065;SDS011;10193;48.884;9.182;2023-05-23T11:06:31;5.45;;;4.97;;
20065;SDS011;10193;48.884;9.182;2023-05-23T11:09:03;5.13;;;4.72;;
20065;SDS011;10193;48.884;9.182;2023-05-23T11:17:28;4.88;;;4.40;;
20065;SDS011;10193;48.884;9.182;2023-05-23T11:19:57;4.93;;;4.53;;
20065;SDS011;10193;48.884;9.182;2023-05-23T11:22:31;4.78;;;4.47;;
20065;SDS011;10193;48.884;9.182;2023-05-23T11:24:59;5.13;;;4.72;;
20065;SDS011;10193;48.884;9.182;2023-05-23T11:27:27;5.68;;;4.93;;
20065;SDS011;10193;48.884;9.182;2023-05-23T11:30:05;5.30;;;4.90;;
20065;SDS011;10193;48.884;9.182;2023-05-23T11:32:34;5.63;;;5.22;;
20065;SDS011;10193;48.884;9.182;2023-05-23T11:35:01;5.93;;;5.32;;
20065;SDS011;10193;48.884;9.182;2023-05-23T11:37:29;6.75;;;6.25;;
20065;SDS011;10193;48.884;9.182;2023-05-23T11:39:57;6.80;;;6.20;;
20065;SDS011;10193;48.884;9.182;2023-05-23T11:42:26;6.20;;;5.70;;
20065;SDS011;10193;48.884;9.182;2023-05-23T11:44:52;5.93;;;5.43;;
20065;SDS011;10193;48.884;9.182;2023-05-23T11:47:19;5.57;;;5.18;;
20065;SDS011;10193;48.884;9.182;2023-05-23T11:49:46;5.40;;;5.00;;
20065;SDS011;10193;48.884;9.182;2023-05-23T11:52:13;5.03;;;4.65;;
20065;SDS011;10193;48.884;9.182;2023-05-23T11:54:41;5.22;;;4.82;;
20065;SDS011;10193;48.884;9.182;2023-05-23T11:57:08;5.22;;;4.82;;
20065;SDS011;10193;48.884;9.182;2023-05-23T11:59:35;5.55;;;5.15;;
20065;SDS011;10193;48.884;9.182;2023-05-23T12:02:04;5.78;;;5.15;;
20065;SDS011;10193;48.884;9.182;2023-05-23T12:04:31;5.13;;;4.75;;
20065;SDS011;10193;48.884;9.182;2023-05-23T12:07:03;5.22;;;4.82;;
20065;SDS011;10193;48.884;9.182;2023-05-23T12:09:30;5.07;;;4.72;;
20065;SDS011;10193;48.884;9.182;2023-05-23T12:11:58;5.03;;;4.63;;
20065;SDS011;10193;48.884;9.182;2023-05-23T12:14:27;4.43;;;4.13;;
20065;SDS011;10193;48.884;9.182;2023-05-23T12:16:54;4.65;;;4.28;;
20065;SDS011;10193;48.884;9.182;2023-05-23T12:19:21;4.32;;;4.03;;
20065;SDS011;10193;48.884;9.182;2023-05-23T12:21:48;4.10;;;3.80;;
20065;SDS011;10193;48.884;9.182;2023-05-23T12:24:16;4.32;;;4.03;;
20065;SDS011;10193;48.884;9.182;2023-05-23T12:26:47;5.07;;;4.20;;
20065;SDS011;10193;48.884;9.182;2023-05-23T12:29:16;4.05;;;3.75;;
20065;SDS011;10193;48.884;9.182;2023-05-23T12:31:46;4.50;;;4.20;;
20065;SDS011;10193;48.884;9.182;2023-05-23T12:34:13;4.63;;;4.22;;
20065;SDS011;10193;48.884;9.182;2023-05-23T12:36:40;4.60;;;4.07;;
20065;SDS011;10193;48.884;9.182;2023-05-23T12:39:08;4.35;;;4.05;;
20065;SDS011;10193;48.884;9.182;2023-05-23T12:41:35;4.30;;;4.00;;
20065;SDS011;10193;48.884;9.182;2023-05-23T12:44:02;4.30;;;4.00;;
20065;SDS011;10193;48.884;9.182;2023-05-23T12:46:30;3.83;;;3.53;;
20065;SDS011;10193;48.884;9.182;2023-05-23T12:48:57;4.32;;;4.03;;
20065;SDS011;10193;48.884;9.182;2023-05-23T12:51:23;4.38;;;4.07;;
20065;SDS011;10193;48.884;9.182;2023-05-23T12:53:50;4.18;;;3.88;;
20065;SDS011;10193;48.884;9.182;2023-05-23T12:56:17;3.90;;;3.60;;
20065;SDS011;10193;48.884;9.182;2023-05-23T12:58:43;3.65;;;3.45;;
20065;SDS011;10193;48.884;9.182;2023-05-23T13:01:10;3.85;;;3.60;;
20065;SDS011;10193;48.884;9.182;2023-05-23T13:03:38;3.53;;;3.33;;
20065;SDS011;10193;48.884;9.182;2023-05-23T13:06:05;3.50;;;3.30;;
20065;SDS011;10193;48.884;9.182;2023-05-23T13:08:32;3.25;;;3.05;;
20065;SDS011;10193;48.884;9.182;2023-05-23T13:10:59;3.53;;;3.33;;
20065;SDS011;10193;48.884;9.182;2023-05-23T13:13:25;3.15;;;2.95;;
20065;SDS011;10193;48.884;9.182;2023-05-23T13:15:52;3.20;;;3.00;;
20065;SDS011;10193;48.884;9.182;2023-05-23T13:18:19;3.35;;;3.13;;
20065;SDS011;10193;48.884;9.182;2023-05-23T13:20:47;3.60;;;3.40;;
20065;SDS011;10193;48.884;9.182;2023-05-23T13:23:13;3.30;;;3.10;;
20065;SDS011;10193;48.884;9.182;2023-05-23T13:25:40;3.20;;;3.00;;
20065;SDS011;10193;48.884;9.182;2023-05-23T13:28:07;3.33;;;3.13;;
20065;SDS011;10193;48.884;9.182;2023-05-23T13:30:35;3.10;;;2.90;;
20065;SDS011;10193;48.884;9.182;2023-05-23T13:33:01;3.30;;;3.10;;
20065;SDS011;10193;48.884;9.182;2023-05-23T13:35:28;3.55;;;3.30;;
20065;SDS011;10193;48.884;9.182;2023-05-23T13:37:56;3.20;;;3.00;;
20065;SDS011;10193;48.884;9.182;2023-05-23T13:40:23;3.25;;;3.03;;
20065;SDS011;10193;48.884;9.182;2023-05-23T13:42:50;3.50;;;3.20;;
20065;SDS011;10193;48.884;9.182;2023-05-23T13:45:17;3.28;;;3.08;;
20065;SDS011;10193;48.884;9.182;2023-05-23T13:47:46;3.08;;;2.80;;
20065;SDS011;10193;48.884;9.182;2023-05-23T13:50:13;3.30;;;3.00;;
20065;SDS011;10193;48.884;9.182;2023-05-23T13:52:40;2.67;;;2.58;;
20065;SDS011;10193;48.884;9.182;2023-05-23T13:55:08;3.00;;;2.90;;
20065;SDS011;10193;48.884;9.182;2023-05-23T13:57:35;2.90;;;2.70;;
20065;SDS011;10193;48.884;9.182;2023-05-23T14:00:02;3.42;;;3.10;;
20065;SDS011;10193;48.884;9.182;2023-05-23T14:02:30;3.13;;;2.92;;
20065;SDS011;10193;48.884;9.182;2023-05-23T14:04:56;2.92;;;2.72;;
20065;SDS011;10193;48.884;9.182;2023-05-23T14:07:23;3.15;;;2.95;;
20065;SDS011;10193;48.884;9.182;2023-05-23T14:09:50;3.00;;;2.80;;
20065;SDS011;10193;48.884;9.182;2023-05-23T14:12:18;4.60;;;3.00;;
20065;SDS011;10193;48.884;9.182;2023-05-23T14:14:44;2.97;;;2.78;;
20065;SDS011;10193;48.884;9.182;2023-05-23T14:17:14;2.60;;;2.50;;
20065;SDS011;10193;48.884;9.182;2023-05-23T14:19:41;2.22;;;2.10;;
20065;SDS011;10193;48.884;9.182;2023-05-23T14:22:08;2.50;;;2.30;;
20065;SDS011;10193;48.884;9.182;2023-05-23T14:24:35;2.33;;;2.22;;
20065;SDS011;10193;48.884;9.182;2023-05-23T14:27:02;2.72;;;2.50;;
20065;SDS011;10193;48.884;9.182;2023-05-23T14:29:30;2.80;;;2.60;;
20065;SDS011;10193;48.884;9.182;2023-05-23T14:31:57;2.60;;;2.45;;
20065;SDS011;10193;48.884;9.182;2023-05-23T14:34:24;2.42;;;2.33;;
20065;SDS011;10193;48.884;9.182;2023-05-23T14:36:51;2.22;;;2.13;;
20065;SDS011;10193;48.884;9.182;2023-05-23T14:39:18;2.30;;;2.20;;